createdAt,value
2018-06-15T00:00:03.432Z,8.30
2018-06-15T00:02:33.060Z,11.53
2018-06-15T00:05:01.459Z,9.60
2018-06-15T00:07:29.880Z,9.57
2018-06-15T00:09:58.697Z,11.53
2018-06-15T00:12:27.040Z,8.77
2018-06-15T00:14:55.427Z,9.97
2018-06-15T00:17:23.739Z,8.40
2018-06-15T00:19:52.027Z,7.93
2018-06-15T00:22:20.367Z,7.90
2018-06-15T00:24:48.665Z,9.57
2018-06-15T00:27:16.983Z,7.23
2018-06-15T00:29:45.262Z,7.13
2018-06-15T00:32:13.560Z,8.33
2018-06-15T00:34:41.882Z,8.67
2018-06-15T00:37:10.163Z,7.40
2018-06-15T00:39:38.519Z,7.20
2018-06-15T00:42:06.819Z,7.17
2018-06-15T00:44:35.101Z,9.40
2018-06-15T00:47:03.390Z,8.50
2018-06-15T00:49:31.688Z,7.73
2018-06-15T00:51:59.969Z,7.80
2018-06-15T00:54:28.299Z,10.30
2018-06-15T00:57:08.067Z,7.47
2018-06-15T00:59:36.359Z,8.20
2018-06-15T01:02:04.714Z,8.73
2018-06-15T01:04:33.020Z,9.20
2018-06-15T01:07:01.307Z,9.07
2018-06-15T01:09:29.575Z,8.90
2018-06-15T01:11:57.851Z,11.00
2018-06-15T01:14:26.158Z,9.87
2018-06-15T01:16:54.448Z,11.27
2018-06-15T01:19:22.859Z,8.17
2018-06-15T01:21:51.141Z,8.77
2018-06-15T01:24:19.506Z,8.47
2018-06-15T01:26:47.804Z,8.73
2018-06-15T01:29:16.121Z,9.33
2018-06-15T01:31:44.445Z,8.73
2018-06-15T01:34:12.771Z,12.67
2018-06-15T01:36:41.131Z,9.80
2018-06-15T01:39:10.655Z,8.80
2018-06-15T01:41:39.011Z,11.33
2018-06-15T01:44:07.276Z,9.23
2018-06-15T01:46:35.792Z,8.90
2018-06-15T01:49:04.068Z,8.60
2018-06-15T01:51:32.334Z,9.13
2018-06-15T01:54:00.617Z,8.43
2018-06-15T01:56:28.882Z,9.27
2018-06-15T01:58:57.125Z,9.10
2018-06-15T02:01:25.496Z,9.70
2018-06-15T02:03:53.712Z,10.60
2018-06-15T02:06:22.019Z,9.27
2018-06-15T02:08:50.343Z,10.70
2018-06-15T02:11:18.673Z,9.73
2018-06-15T02:13:47.000Z,9.37
2018-06-15T02:16:15.331Z,8.63
2018-06-15T02:18:43.667Z,9.20
2018-06-15T02:21:12.045Z,8.67
2018-06-15T02:23:40.339Z,9.80
2018-06-15T02:26:08.643Z,11.20
2018-06-15T02:28:36.939Z,10.43
2018-06-15T02:31:05.267Z,10.63
2018-06-15T02:33:33.612Z,11.93
2018-06-15T02:36:01.966Z,10.90
2018-06-15T02:38:30.281Z,10.23
2018-06-15T02:40:58.592Z,9.07
2018-06-15T02:43:26.912Z,12.83
2018-06-15T02:45:55.225Z,9.97
2018-06-15T02:48:23.529Z,10.00
2018-06-15T02:50:51.934Z,9.23
2018-06-15T02:53:20.266Z,10.67
2018-06-15T02:55:48.609Z,10.97
2018-06-15T02:58:16.934Z,12.37
2018-06-15T03:00:45.308Z,12.80
2018-06-15T03:03:13.743Z,9.60
2018-06-15T03:05:42.094Z,10.10
2018-06-15T03:08:10.453Z,10.80
2018-06-15T03:10:38.787Z,11.33
2018-06-15T03:13:07.114Z,11.13
2018-06-15T03:15:35.477Z,9.73
2018-06-15T03:18:03.748Z,9.73
2018-06-15T03:20:32.020Z,11.40
2018-06-15T03:23:00.385Z,9.70
2018-06-15T03:25:28.701Z,10.87
2018-06-15T03:27:57.014Z,12.80
2018-06-15T03:30:25.307Z,10.33
2018-06-15T03:32:53.619Z,9.70
2018-06-15T03:35:21.944Z,9.83
2018-06-15T03:37:50.260Z,10.40
2018-06-15T03:40:18.579Z,9.83
2018-06-15T03:42:46.993Z,13.40
2018-06-15T03:45:15.342Z,15.23
2018-06-15T03:47:43.714Z,11.10
2018-06-15T03:50:11.997Z,10.57
2018-06-15T03:52:40.339Z,11.43
2018-06-15T03:55:08.640Z,11.40
2018-06-15T03:57:36.946Z,11.60
2018-06-15T04:00:05.294Z,11.90
2018-06-15T04:02:34.335Z,11.13
2018-06-15T04:05:02.643Z,11.83
2018-06-15T04:07:31.313Z,11.70
2018-06-15T04:09:59.588Z,10.53
2018-06-15T04:12:27.919Z,8.77
2018-06-15T04:14:56.311Z,10.00
2018-06-15T04:17:24.703Z,10.23
2018-06-15T04:19:52.985Z,9.83
2018-06-15T04:22:21.279Z,12.27
2018-06-15T04:24:49.295Z,9.87
2018-06-15T04:27:17.667Z,10.23
2018-06-15T04:29:45.949Z,9.70
2018-06-15T04:32:14.277Z,11.40
2018-06-15T04:34:42.580Z,12.93
2018-06-15T04:37:10.841Z,10.70
2018-06-15T04:39:39.305Z,13.03
2018-06-15T04:42:07.753Z,10.13
2018-06-15T04:44:36.080Z,13.70
2018-06-15T04:47:04.581Z,11.00
2018-06-15T04:49:33.072Z,11.17
2018-06-15T04:52:01.504Z,10.47
2018-06-15T04:54:30.069Z,12.00
2018-06-15T04:56:58.381Z,12.40
2018-06-15T04:59:26.712Z,12.30
2018-06-15T05:01:55.077Z,10.33
2018-06-15T05:04:23.512Z,10.57
2018-06-15T05:06:51.808Z,11.90
2018-06-15T05:09:20.224Z,10.73
2018-06-15T05:11:48.515Z,12.00
2018-06-15T05:14:16.828Z,10.90
2018-06-15T05:16:45.246Z,10.70
2018-06-15T05:19:14.564Z,13.03
2018-06-15T05:21:42.965Z,11.40
2018-06-15T05:24:11.435Z,14.40
2018-06-15T05:26:39.788Z,10.50
2018-06-15T05:29:08.136Z,12.70
2018-06-15T05:31:36.587Z,12.00
2018-06-15T05:34:05.649Z,11.10
2018-06-15T05:36:34.003Z,11.50
2018-06-15T05:39:02.401Z,10.97
2018-06-15T05:41:30.720Z,11.17
2018-06-15T05:43:59.124Z,10.43
2018-06-15T05:46:27.656Z,10.90
2018-06-15T05:48:56.112Z,11.27
2018-06-15T05:51:24.569Z,16.13
2018-06-15T05:53:52.977Z,14.60
2018-06-15T05:56:21.324Z,9.93
2018-06-15T05:58:49.764Z,10.17
2018-06-15T06:01:18.136Z,10.37
2018-06-15T06:03:46.514Z,10.83
2018-06-15T06:06:14.915Z,11.83
2018-06-15T06:08:43.295Z,9.60
2018-06-15T06:11:11.387Z,9.83
2018-06-15T06:13:39.809Z,10.23
2018-06-15T06:16:08.254Z,11.47
2018-06-15T06:18:36.619Z,12.40
2018-06-15T06:21:05.037Z,10.80
2018-06-15T06:23:33.396Z,10.60
2018-06-15T06:26:01.759Z,10.90
2018-06-15T06:28:30.080Z,10.87
2018-06-15T06:30:58.644Z,11.23
2018-06-15T06:33:27.093Z,15.03
2018-06-15T06:35:55.565Z,10.30
2018-06-15T06:38:25.911Z,10.77
2018-06-15T06:40:54.354Z,10.17
2018-06-15T06:43:22.761Z,9.97
2018-06-15T06:45:50.842Z,11.80
2018-06-15T06:48:19.305Z,13.93
2018-06-15T06:50:47.845Z,9.90
2018-06-15T06:53:16.253Z,9.23
2018-06-15T06:55:44.709Z,11.33
2018-06-15T06:58:13.132Z,10.80
2018-06-15T07:00:41.612Z,16.40
2018-06-15T07:03:09.722Z,9.33
2018-06-15T07:05:38.157Z,10.73
2018-06-15T07:08:06.630Z,12.73
2018-06-15T07:10:35.037Z,14.30
2018-06-15T07:13:03.445Z,10.77
2018-06-15T07:15:31.893Z,10.37
2018-06-15T07:18:00.287Z,10.30
2018-06-15T07:20:28.771Z,10.60
2018-06-15T07:22:57.188Z,9.50
2018-06-15T07:25:25.637Z,9.60
2018-06-15T07:27:54.173Z,9.53
2018-06-15T07:30:22.611Z,9.73
2018-06-15T07:32:51.044Z,11.13
2018-06-15T07:35:19.528Z,9.33
2018-06-15T07:37:47.943Z,9.87
2018-06-15T07:40:16.415Z,9.40
2018-06-15T07:42:44.877Z,9.83
2018-06-15T07:45:13.316Z,12.67
2018-06-15T07:47:41.856Z,9.47
2018-06-15T07:50:10.288Z,9.90
2018-06-15T07:52:38.725Z,14.03
2018-06-15T07:55:07.104Z,9.37
2018-06-15T07:57:35.594Z,13.40
2018-06-15T08:00:04.026Z,9.60
2018-06-15T08:02:32.403Z,9.37
2018-06-15T08:05:00.853Z,9.60
2018-06-15T08:07:29.308Z,8.80
2018-06-15T08:09:57.703Z,9.17
2018-06-15T08:12:26.156Z,8.50
2018-06-15T08:14:54.532Z,9.70
2018-06-15T08:17:22.888Z,11.23
2018-06-15T08:19:51.271Z,8.77
2018-06-15T08:22:19.688Z,10.30
2018-06-15T08:24:48.062Z,8.43
2018-06-15T08:27:16.496Z,11.43
2018-06-15T08:29:44.772Z,9.53
2018-06-15T08:32:13.124Z,9.40
2018-06-15T08:34:41.568Z,9.20
2018-06-15T08:37:09.953Z,8.90
2018-06-15T08:39:38.345Z,8.37
2018-06-15T08:42:06.728Z,10.07
2018-06-15T08:44:35.172Z,8.40
2018-06-15T08:47:03.561Z,8.97
2018-06-15T08:49:31.963Z,8.20
2018-06-15T08:52:00.348Z,11.60
2018-06-15T08:54:28.724Z,8.50
2018-06-15T08:56:57.164Z,11.27
2018-06-15T08:59:25.504Z,9.03
2018-06-15T09:01:53.910Z,9.03
2018-06-15T09:04:22.278Z,9.23
2018-06-15T09:06:50.667Z,9.00
2018-06-15T09:09:19.035Z,9.63
2018-06-15T09:11:47.385Z,9.57
2018-06-15T09:14:15.838Z,10.33
2018-06-15T09:16:44.200Z,9.17
2018-06-15T09:19:12.787Z,9.10
2018-06-15T09:21:41.209Z,9.67
2018-06-15T09:24:09.628Z,12.07
2018-06-15T09:26:38.112Z,9.30
2018-06-15T09:29:06.511Z,7.47
2018-06-15T09:31:34.609Z,9.20
2018-06-15T09:34:02.996Z,11.20
2018-06-15T09:36:31.380Z,10.03
2018-06-15T09:38:59.775Z,12.20
2018-06-15T09:41:28.147Z,9.27
2018-06-15T09:43:56.880Z,9.40
2018-06-15T09:46:26.167Z,9.53
2018-06-15T09:48:54.540Z,11.50
2018-06-15T09:51:22.969Z,9.93
2018-06-15T09:53:51.328Z,8.87
2018-06-15T09:56:19.680Z,10.90
2018-06-15T09:58:52.664Z,9.20
2018-06-15T10:01:21.279Z,8.90
2018-06-15T10:03:49.721Z,9.27
2018-06-15T10:06:18.305Z,9.20
2018-06-15T10:08:46.844Z,8.73
2018-06-15T10:11:15.437Z,10.03
2018-06-15T10:13:43.893Z,9.80
2018-06-15T10:16:11.977Z,8.50
2018-06-15T10:18:40.376Z,10.17
2018-06-15T10:21:09.028Z,9.40
2018-06-15T10:23:37.360Z,9.20
2018-06-15T10:26:06.905Z,9.83
2018-06-15T10:28:35.241Z,9.43
2018-06-15T10:31:03.761Z,8.43
2018-06-15T10:33:32.077Z,8.23
2018-06-15T10:36:00.556Z,9.93
2018-06-15T10:38:28.917Z,9.20
2018-06-15T10:40:57.229Z,9.60
2018-06-15T10:43:25.608Z,10.17
2018-06-15T10:45:53.970Z,9.47
2018-06-15T10:48:22.212Z,10.30
2018-06-15T10:50:50.451Z,9.17
2018-06-15T10:53:19.333Z,9.20
2018-06-15T10:55:47.921Z,9.23
2018-06-15T10:58:18.624Z,8.83
2018-06-15T11:00:47.362Z,10.40
2018-06-15T11:03:15.929Z,9.50
2018-06-15T11:05:44.381Z,8.20
2018-06-15T11:08:12.901Z,10.13
2018-06-15T11:10:41.329Z,8.83
2018-06-15T11:13:09.720Z,10.03
2018-06-15T11:15:38.188Z,11.07
2018-06-15T11:18:06.786Z,10.73
2018-06-15T11:20:35.361Z,9.13
2018-06-15T11:23:03.769Z,9.43
2018-06-15T11:25:35.146Z,9.10
2018-06-15T11:28:03.570Z,10.20
2018-06-15T11:30:36.387Z,9.73
2018-06-15T11:33:07.919Z,8.47
2018-06-15T11:35:36.289Z,10.93
2018-06-15T11:38:04.759Z,10.40
2018-06-15T11:40:33.129Z,10.03
2018-06-15T11:43:01.334Z,8.80
2018-06-15T11:45:29.719Z,10.03
2018-06-15T11:47:58.625Z,8.23
2018-06-15T11:50:27.108Z,9.47
2018-06-15T11:52:55.677Z,12.53
2018-06-15T11:55:24.202Z,9.40
2018-06-15T11:58:13.700Z,7.73
2018-06-15T12:00:53.674Z,9.17
2018-06-15T12:03:22.927Z,8.77
2018-06-15T12:05:51.393Z,8.60
2018-06-15T12:08:19.929Z,9.30
2018-06-15T12:10:49.000Z,8.53
2018-06-15T12:13:17.448Z,9.70
2018-06-15T12:15:45.967Z,10.43
2018-06-15T12:18:14.402Z,9.40
2018-06-15T12:20:42.869Z,9.23
2018-06-15T12:23:11.516Z,8.77
2018-06-15T12:25:39.996Z,8.80
2018-06-15T12:28:08.427Z,9.13
2018-06-15T12:30:37.057Z,12.03
2018-06-15T12:33:05.572Z,9.67
2018-06-15T12:35:34.100Z,9.23
2018-06-15T12:38:02.671Z,8.87
2018-06-15T12:40:31.168Z,8.73
2018-06-15T12:42:59.724Z,8.50
2018-06-15T12:45:28.195Z,9.20
2018-06-15T12:47:56.704Z,18.87
2018-06-15T12:50:25.245Z,27.87
2018-06-15T12:52:53.720Z,9.40
2018-06-15T12:55:22.202Z,9.00
2018-06-15T12:57:50.857Z,9.07
2018-06-15T13:00:19.303Z,8.20
2018-06-15T13:02:47.787Z,8.53
2018-06-15T13:05:16.279Z,9.13
2018-06-15T13:07:44.729Z,8.07
2018-06-15T13:10:13.311Z,8.43
2018-06-15T13:12:41.784Z,8.70
2018-06-15T13:15:10.220Z,8.10
2018-06-15T13:17:45.700Z,8.50
2018-06-15T13:20:14.161Z,9.90
2018-06-15T13:22:42.593Z,7.90
2018-06-15T13:25:10.942Z,10.27
2018-06-15T13:27:39.344Z,8.43
2018-06-15T13:30:07.753Z,7.97
2018-06-15T13:32:36.125Z,8.70
2018-06-15T13:35:04.716Z,8.00
2018-06-15T13:37:33.199Z,8.77
2018-06-15T13:40:01.705Z,20.40
2018-06-15T13:42:30.192Z,8.43
2018-06-15T13:44:58.596Z,8.63
2018-06-15T13:47:27.668Z,8.27
2018-06-15T13:49:56.068Z,8.77
2018-06-15T13:52:24.433Z,8.10
2018-06-15T13:54:53.168Z,8.63
2018-06-15T13:57:21.557Z,8.33
2018-06-15T13:59:50.733Z,9.10
2018-06-15T14:02:19.128Z,8.13
2018-06-15T14:04:47.562Z,8.87
2018-06-15T14:07:15.989Z,8.70
2018-06-15T14:09:44.502Z,9.20
2018-06-15T14:12:13.691Z,8.80
2018-06-15T14:14:42.318Z,9.80
2018-06-15T14:17:10.620Z,8.60
2018-06-15T14:19:39.057Z,10.63
2018-06-15T14:22:07.605Z,8.53
2018-06-15T14:24:35.993Z,9.07
2018-06-15T14:27:16.074Z,8.63
2018-06-15T14:29:44.465Z,8.87
2018-06-15T14:32:12.872Z,10.10
2018-06-15T14:34:41.263Z,8.97
2018-06-15T14:37:09.723Z,9.57
2018-06-15T14:39:38.156Z,9.07
2018-06-15T14:42:06.557Z,8.73
2018-06-15T14:44:35.009Z,9.03
2018-06-15T14:47:03.492Z,10.53
2018-06-15T14:49:31.974Z,8.10
2018-06-15T14:52:00.403Z,8.47
2018-06-15T14:54:28.795Z,9.27
2018-06-15T14:56:57.258Z,10.17
2018-06-15T14:59:25.694Z,8.67
2018-06-15T15:01:54.104Z,8.00
2018-06-15T15:04:22.513Z,8.00
2018-06-15T15:06:50.909Z,8.60
2018-06-15T15:09:19.324Z,7.97
2018-06-15T15:11:47.735Z,7.83
2018-06-15T15:14:16.158Z,7.87
2018-06-15T15:16:44.586Z,8.10
2018-06-15T15:19:13.052Z,7.50
2018-06-15T15:21:41.416Z,8.53
2018-06-15T15:24:09.438Z,8.17
2018-06-15T15:26:38.085Z,8.80
2018-06-15T15:29:06.604Z,8.73
2018-06-15T15:31:35.056Z,8.33
2018-06-15T15:34:03.577Z,7.43
2018-06-15T15:36:32.096Z,7.63
2018-06-15T15:39:00.542Z,8.83
2018-06-15T15:41:28.996Z,8.60
2018-06-15T15:43:57.440Z,8.00
2018-06-15T15:46:25.873Z,8.23
2018-06-15T15:48:54.488Z,8.13
2018-06-15T15:51:22.934Z,7.57
2018-06-15T15:53:51.393Z,7.83
2018-06-15T15:56:19.826Z,7.33
2018-06-15T15:58:48.339Z,9.67
2018-06-15T16:01:16.802Z,9.30
2018-06-15T16:03:45.158Z,8.20
2018-06-15T16:06:13.658Z,8.70
2018-06-15T16:08:42.248Z,8.13
2018-06-15T16:11:10.519Z,9.00
2018-06-15T16:13:38.776Z,8.37
2018-06-15T16:16:07.703Z,9.33
2018-06-15T16:18:35.973Z,9.03
2018-06-15T16:21:06.481Z,8.33
2018-06-15T16:23:34.918Z,9.40
2018-06-15T16:26:03.216Z,9.80
2018-06-15T16:28:31.472Z,8.80
2018-06-15T16:31:00.027Z,8.73
2018-06-15T16:33:28.396Z,8.80
2018-06-15T16:35:56.825Z,8.83
2018-06-15T16:38:25.347Z,8.57
2018-06-15T16:40:53.669Z,8.07
2018-06-15T16:43:22.407Z,8.90
2018-06-15T16:45:50.987Z,7.67
2018-06-15T16:48:19.081Z,7.00
2018-06-15T16:50:47.504Z,8.20
2018-06-15T16:53:15.884Z,7.97
2018-06-15T16:55:44.288Z,7.40
2018-06-15T16:58:12.863Z,7.83
2018-06-15T17:00:41.129Z,8.80
2018-06-15T17:03:09.845Z,8.33
2018-06-15T17:05:38.241Z,7.50
2018-06-15T17:08:06.627Z,7.83
2018-06-15T17:10:35.096Z,8.03
2018-06-15T17:13:03.498Z,7.83
2018-06-15T17:15:31.667Z,9.57
2018-06-15T17:18:00.064Z,7.57
2018-06-15T17:20:28.597Z,9.10
2018-06-15T17:22:57.015Z,8.00
2018-06-15T17:25:25.415Z,7.90
2018-06-15T17:27:53.871Z,7.80
2018-06-15T17:30:22.032Z,11.20
2018-06-15T17:32:50.559Z,7.60
2018-06-15T17:35:19.071Z,7.43
2018-06-15T17:37:47.715Z,11.30
2018-06-15T17:40:16.292Z,9.40
2018-06-15T17:42:44.822Z,8.20
2018-06-15T17:45:13.393Z,9.57
2018-06-15T17:47:41.945Z,9.17
2018-06-15T17:50:10.541Z,8.47
2018-06-15T17:52:41.325Z,7.87
2018-06-15T17:55:09.978Z,7.87
2018-06-15T17:57:38.500Z,8.50
2018-06-15T18:00:07.226Z,8.70
2018-06-15T18:02:36.118Z,8.73
2018-06-15T18:05:04.738Z,9.40
2018-06-15T18:07:33.322Z,14.90
2018-06-15T18:10:01.957Z,8.90
2018-06-15T18:12:30.514Z,7.77
2018-06-15T18:14:59.136Z,8.50
2018-06-15T18:17:27.640Z,9.33
2018-06-15T18:19:56.058Z,8.57
2018-06-15T18:22:24.441Z,8.00
2018-06-15T18:24:53.174Z,9.80
2018-06-15T18:27:21.523Z,10.13
2018-06-15T18:29:50.229Z,9.70
2018-06-15T18:32:19.207Z,8.63
2018-06-15T18:34:47.697Z,9.80
2018-06-15T18:37:16.062Z,10.10
2018-06-15T18:39:44.367Z,9.00
2018-06-15T18:42:12.599Z,9.30
2018-06-15T18:44:40.864Z,8.87
2018-06-15T18:47:09.223Z,8.00
2018-06-15T18:49:37.484Z,8.63
2018-06-15T18:52:07.543Z,7.80
2018-06-15T18:54:35.963Z,9.20
2018-06-15T18:57:04.433Z,8.60
2018-06-15T18:59:33.989Z,9.90
2018-06-15T19:02:03.945Z,10.70
2018-06-15T19:04:33.647Z,7.93
2018-06-15T19:07:01.903Z,8.73
2018-06-15T19:09:30.517Z,9.30
2018-06-15T19:11:59.190Z,9.60
2018-06-15T19:14:27.644Z,10.57
2018-06-15T19:16:56.163Z,9.00
2018-06-15T19:19:24.678Z,8.37
2018-06-15T19:21:53.249Z,10.53
2018-06-15T19:24:21.771Z,8.90
2018-06-15T19:26:50.438Z,9.10
2018-06-15T19:29:19.876Z,9.43
2018-06-15T19:31:50.185Z,12.67
2018-06-15T19:34:22.246Z,18.10
2018-06-15T19:36:52.341Z,23.80
2018-06-15T19:39:20.827Z,17.13
2018-06-15T19:41:49.321Z,11.43
2018-06-15T19:44:17.757Z,9.80
2018-06-15T19:46:46.237Z,10.53
2018-06-15T19:49:14.627Z,10.10
2018-06-15T19:51:43.092Z,10.70
2018-06-15T19:54:11.768Z,11.40
2018-06-15T19:56:39.862Z,11.97
2018-06-15T19:59:08.298Z,11.83
2018-06-15T20:01:36.700Z,10.57
2018-06-15T20:04:05.172Z,11.00
2018-06-15T20:06:33.574Z,11.77
2018-06-15T20:09:02.054Z,10.97
2018-06-15T20:11:30.708Z,10.83
2018-06-15T20:13:59.063Z,10.63
2018-06-15T20:16:27.437Z,9.70
2018-06-15T20:18:55.872Z,10.77
2018-06-15T20:21:24.244Z,10.80
2018-06-15T20:23:52.555Z,9.73
2018-06-15T20:26:20.917Z,10.20
2018-06-15T20:28:49.374Z,9.30
2018-06-15T20:31:17.735Z,10.33
2018-06-15T20:33:46.082Z,9.83
2018-06-15T20:36:14.647Z,9.97
2018-06-15T20:38:42.964Z,10.97
2018-06-15T20:41:11.347Z,10.07
2018-06-15T20:43:39.741Z,11.33
2018-06-15T20:46:08.012Z,10.80
2018-06-15T20:48:36.736Z,12.50
2018-06-15T20:51:05.248Z,14.40
2018-06-15T20:53:33.568Z,11.47
2018-06-15T20:56:01.939Z,12.50
2018-06-15T20:58:30.350Z,12.33
2018-06-15T21:00:58.874Z,11.30
2018-06-15T21:03:27.335Z,13.30
2018-06-15T21:05:55.854Z,12.43
2018-06-15T21:08:24.217Z,11.33
2018-06-15T21:10:52.593Z,12.70
2018-06-15T21:13:20.996Z,10.53
2018-06-15T21:15:49.415Z,12.13
2018-06-15T21:18:17.756Z,11.57
2018-06-15T21:20:46.162Z,12.80
2018-06-15T21:23:14.660Z,18.10
2018-06-15T21:25:42.947Z,11.27
2018-06-15T21:28:11.287Z,11.43
2018-06-15T21:30:39.635Z,14.17
2018-06-15T21:33:07.952Z,17.43
2018-06-15T21:35:36.268Z,20.63
2018-06-15T21:38:04.897Z,16.73
2018-06-15T21:40:33.196Z,14.73
2018-06-15T21:43:01.573Z,14.30
2018-06-15T21:45:29.917Z,14.20
2018-06-15T21:47:58.242Z,13.47
2018-06-15T21:50:26.590Z,12.27
2018-06-15T21:52:55.026Z,17.60
2018-06-15T21:55:23.332Z,15.30
2018-06-15T21:57:51.658Z,18.10
2018-06-15T22:00:19.713Z,17.30
2018-06-15T22:02:48.033Z,19.23
2018-06-15T22:05:16.453Z,12.57
2018-06-15T22:07:44.752Z,12.33
2018-06-15T22:10:13.039Z,12.67
2018-06-15T22:12:41.360Z,13.30
2018-06-15T22:15:09.681Z,13.57
2018-06-15T22:17:38.054Z,14.33
2018-06-15T22:20:06.465Z,14.80
2018-06-15T22:22:34.744Z,13.00
2018-06-15T22:25:03.069Z,12.97
2018-06-15T22:27:31.380Z,14.40
2018-06-15T22:29:59.810Z,14.70
2018-06-15T22:32:28.093Z,14.00
2018-06-15T22:34:56.536Z,12.60
2018-06-15T22:37:24.960Z,16.60
2018-06-15T22:39:53.283Z,22.47
2018-06-15T22:42:21.627Z,23.63
2018-06-15T22:44:49.966Z,32.60
2018-06-15T22:47:18.267Z,26.20
2018-06-15T22:49:46.712Z,19.30
2018-06-15T22:52:15.036Z,19.13
2018-06-15T22:54:43.415Z,14.10
2018-06-15T22:57:11.699Z,15.90
2018-06-15T22:59:40.028Z,14.90
2018-06-15T23:02:08.358Z,15.50
2018-06-15T23:04:36.681Z,13.57
2018-06-15T23:07:05.089Z,14.97
2018-06-15T23:09:33.396Z,12.20
2018-06-15T23:12:01.725Z,13.00
2018-06-15T23:14:30.105Z,14.13
2018-06-15T23:16:59.004Z,14.80
2018-06-15T23:19:27.332Z,14.43
2018-06-15T23:21:55.758Z,13.27
2018-06-15T23:24:24.153Z,14.53
2018-06-15T23:26:52.736Z,15.00
2018-06-15T23:29:21.063Z,14.40
2018-06-15T23:31:49.428Z,12.27
2018-06-15T23:34:17.748Z,13.20
2018-06-15T23:36:46.037Z,14.00
2018-06-15T23:39:14.424Z,13.00
2018-06-15T23:41:42.728Z,13.67
2018-06-15T23:44:11.034Z,12.40
2018-06-15T23:46:39.311Z,13.70
2018-06-15T23:49:07.760Z,13.20
2018-06-15T23:51:36.079Z,14.30
2018-06-15T23:54:04.428Z,12.77
2018-06-15T23:56:32.744Z,14.60
2018-06-15T23:59:01.084Z,14.07
